createdAt,value
2017-04-18T00:00:59.552Z,20.8
2017-04-18T00:02:09.806Z,20.76
2017-04-18T00:03:20.058Z,20.73
2017-04-18T00:04:30.317Z,20.74
2017-04-18T00:05:40.255Z,20.77
2017-04-18T00:06:50.193Z,20.76
2017-04-18T00:08:00.447Z,20.73
2017-04-18T00:09:10.702Z,20.76
2017-04-18T00:10:20.955Z,20.76
2017-04-18T00:11:31.398Z,20.76
2017-04-18T00:12:41.025Z,20.7
2017-04-18T00:13:51.278Z,20.77
2017-04-18T00:15:01.752Z,20.82
2017-04-18T00:16:11.950Z,20.69
2017-04-18T00:17:22.199Z,20.85
2017-04-18T00:18:32.142Z,20.88
2017-04-18T00:19:42.397Z,20.73
2017-04-18T00:20:52.340Z,20.8
2017-04-18T00:22:02.592Z,20.8
2017-04-18T00:23:12.842Z,20.74
2017-04-18T00:24:22.813Z,20.79
2017-04-18T00:25:32.749Z,20.79
2017-04-18T00:26:43.008Z,20.82
2017-04-18T00:27:52.946Z,20.64
2017-04-18T00:29:03.203Z,20.76
2017-04-18T00:30:13.145Z,20.77
2017-04-18T00:31:23.396Z,20.76
2017-04-18T00:32:33.649Z,20.67
2017-04-18T00:33:43.587Z,20.76
2017-04-18T00:34:53.527Z,20.77
2017-04-18T00:36:03.783Z,20.76
2017-04-18T00:37:13.415Z,20.76
2017-04-18T00:38:23.353Z,20.74
2017-04-18T00:39:33.297Z,20.76
2017-04-18T00:40:43.549Z,20.79
2017-04-18T00:41:53.173Z,20.8
2017-04-18T00:43:02.801Z,20.79
2017-04-18T00:44:13.053Z,20.73
2017-04-18T00:45:22.996Z,20.76
2017-04-18T00:46:33.254Z,20.76
2017-04-18T00:47:43.207Z,20.76
2017-04-18T00:48:53.151Z,20.77
2017-04-18T00:50:03.406Z,20.62
2017-04-18T00:51:13.406Z,20.76
2017-04-18T00:52:24.070Z,20.74
2017-04-18T00:53:34.325Z,20.69
2017-04-18T00:54:44.262Z,20.79
2017-04-18T00:55:54.516Z,20.79
2017-04-18T00:57:04.772Z,20.73
2017-04-18T00:58:14.709Z,20.73
2017-04-18T00:59:24.995Z,20.74
2017-04-18T01:00:35.249Z,20.79
2017-04-18T01:01:45.503Z,20.8
2017-04-18T01:02:55.761Z,20.76
2017-04-18T01:04:06.026Z,20.8
2017-04-18T01:05:16.297Z,20.76
2017-04-18T01:06:26.547Z,20.74
2017-04-18T01:07:36.488Z,20.77
2017-04-18T01:08:46.744Z,20.77
2017-04-18T01:09:57.001Z,20.76
2017-04-18T01:11:06.945Z,20.76
2017-04-18T01:12:16.884Z,20.76
2017-04-18T01:13:27.147Z,20.76
2017-04-18T01:14:37.398Z,20.82
2017-04-18T01:15:47.338Z,20.74
2017-04-18T01:16:57.601Z,20.73
2017-04-18T01:18:07.535Z,20.76
2017-04-18T01:19:17.480Z,20.79
2017-04-18T01:20:27.105Z,20.76
2017-04-18T01:21:37.359Z,20.76
2017-04-18T01:22:47.608Z,20.77
2017-04-18T01:23:57.554Z,20.77
2017-04-18T01:25:07.498Z,20.77
2017-04-18T01:26:17.439Z,20.67
2017-04-18T01:27:27.624Z,20.76
2017-04-18T01:28:38.218Z,20.8
2017-04-18T01:29:48.202Z,20.82
2017-04-18T01:30:58.550Z,20.76
2017-04-18T01:32:09.020Z,20.76
2017-04-18T01:33:18.956Z,20.72
2017-04-18T01:34:29.206Z,20.73
2017-04-18T01:35:39.141Z,20.7
2017-04-18T01:36:49.078Z,20.77
2017-04-18T01:37:59.333Z,20.76
2017-04-18T01:39:09.592Z,20.73
2017-04-18T01:40:19.864Z,20.76
2017-04-18T01:41:30.118Z,20.69
2017-04-18T01:42:39.752Z,20.73
2017-04-18T01:43:50.010Z,20.76
2017-04-18T01:44:59.942Z,20.73
2017-04-18T01:46:10.183Z,20.77
2017-04-18T01:47:19.801Z,20.72
2017-04-18T01:48:29.415Z,20.73
2017-04-18T01:49:39.661Z,20.74
2017-04-18T01:50:49.904Z,20.79
2017-04-18T01:51:59.825Z,20.73
2017-04-18T01:53:10.069Z,20.77
2017-04-18T01:54:20.315Z,20.74
2017-04-18T01:55:30.558Z,20.73
2017-04-18T01:56:40.494Z,20.76
2017-04-18T01:57:50.431Z,20.76
2017-04-18T01:59:00.673Z,20.76
2017-04-18T02:00:10.914Z,20.74
2017-04-18T02:01:20.222Z,20.72
2017-04-18T02:02:30.153Z,20.76
2017-04-18T02:03:40.396Z,20.73
2017-04-18T02:04:50.008Z,20.79
2017-04-18T02:05:59.927Z,20.67
2017-04-18T02:07:10.460Z,20.73
2017-04-18T02:08:20.700Z,20.84
2017-04-18T02:09:30.935Z,20.72
2017-04-18T02:10:40.548Z,20.76
2017-04-18T02:11:50.924Z,20.74
2017-04-18T02:13:01.401Z,20.72
2017-04-18T02:14:11.336Z,20.79
2017-04-18T02:15:21.263Z,20.73
2017-04-18T02:16:30.871Z,20.74
2017-04-18T02:17:41.113Z,20.76
2017-04-18T02:18:51.045Z,20.79
2017-04-18T02:20:00.701Z,20.73
2017-04-18T02:21:10.631Z,20.74
2017-04-18T02:22:20.867Z,20.76
2017-04-18T02:23:31.107Z,20.77
2017-04-18T02:24:41.348Z,20.74
2017-04-18T02:25:51.289Z,20.76
2017-04-18T02:27:01.230Z,20.76
2017-04-18T02:28:11.160Z,20.76
2017-04-18T02:29:21.086Z,20.76
2017-04-18T02:30:31.334Z,20.7
2017-04-18T02:31:41.294Z,20.73
2017-04-18T02:32:51.540Z,20.74
2017-04-18T02:34:01.778Z,20.72
2017-04-18T02:35:12.027Z,20.74
2017-04-18T02:36:21.955Z,20.79
2017-04-18T02:37:32.196Z,20.79
2017-04-18T02:38:42.129Z,20.7
2017-04-18T02:39:52.066Z,20.69
2017-04-18T02:41:01.707Z,20.73
2017-04-18T02:42:11.945Z,20.72
2017-04-18T02:43:22.188Z,20.73
2017-04-18T02:44:32.109Z,20.76
2017-04-18T02:45:42.038Z,20.72
2017-04-18T02:46:52.275Z,20.73
2017-04-18T02:48:02.549Z,20.82
2017-04-18T02:49:12.785Z,20.67
2017-04-18T02:50:23.024Z,20.8
2017-04-18T02:51:33.268Z,20.89
2017-04-18T02:52:42.897Z,20.88
2017-04-18T02:53:53.141Z,20.91
2017-04-18T02:55:03.387Z,20.87
2017-04-18T02:56:13.788Z,20.77
2017-04-18T02:57:24.084Z,20.82
2017-04-18T02:58:33.708Z,20.82
2017-04-18T02:59:43.642Z,20.82
2017-04-18T03:00:53.893Z,20.72
2017-04-18T03:02:04.129Z,20.74
2017-04-18T03:03:14.376Z,20.82
2017-04-18T03:04:24.308Z,20.79
2017-04-18T03:05:34.235Z,20.76
2017-04-18T03:06:44.478Z,20.77
2017-04-18T03:07:54.721Z,20.8
2017-04-18T03:09:04.646Z,20.8
2017-04-18T03:10:14.887Z,20.74
2017-04-18T03:11:24.809Z,20.77
2017-04-18T03:12:35.060Z,20.77
2017-04-18T03:13:45.315Z,20.74
2017-04-18T03:14:55.571Z,20.76
2017-04-18T03:16:05.809Z,20.69
2017-04-18T03:17:15.741Z,20.74
2017-04-18T03:18:25.982Z,20.8
2017-04-18T03:19:35.912Z,20.82
2017-04-18T03:20:46.154Z,20.84
2017-04-18T03:21:56.086Z,20.74
2017-04-18T03:23:06.034Z,20.76
2017-04-18T03:24:15.959Z,20.64
2017-04-18T03:25:26.199Z,20.8
2017-04-18T03:26:36.440Z,20.76
2017-04-18T03:27:46.681Z,20.84
2017-04-18T03:28:56.928Z,20.66
2017-04-18T03:30:07.170Z,20.77
2017-04-18T03:31:17.409Z,20.76
2017-04-18T03:32:27.651Z,20.76
2017-04-18T03:33:37.635Z,20.67
2017-04-18T03:34:47.957Z,20.85
2017-04-18T03:35:58.473Z,20.82
2017-04-18T03:37:08.567Z,20.64
2017-04-18T03:38:18.182Z,20.62
2017-04-18T03:39:28.427Z,20.8
2017-04-18T03:40:38.666Z,20.8
2017-04-18T03:41:48.910Z,20.77
2017-04-18T03:42:58.864Z,20.77
2017-04-18T03:44:09.116Z,20.8
2017-04-18T03:45:19.357Z,20.73
2017-04-18T03:46:29.595Z,20.74
2017-04-18T03:47:39.527Z,20.79
2017-04-18T03:48:49.774Z,20.66
2017-04-18T03:49:59.707Z,20.76
2017-04-18T03:51:09.952Z,20.79
2017-04-18T03:52:20.200Z,20.72
2017-04-18T03:53:30.441Z,20.74
2017-04-18T03:54:40.057Z,20.82
2017-04-18T03:55:50.293Z,20.73
2017-04-18T03:56:59.922Z,20.7
2017-04-18T03:58:10.161Z,20.76
2017-04-18T03:59:20.411Z,20.76
2017-04-18T04:00:30.031Z,20.8
2017-04-18T04:01:40.266Z,20.73
2017-04-18T04:02:50.505Z,20.73
2017-04-18T04:04:00.745Z,20.76
2017-04-18T04:05:10.673Z,20.76
2017-04-18T04:06:20.910Z,20.76
2017-04-18T04:07:31.154Z,20.76
2017-04-18T04:08:40.769Z,20.73
2017-04-18T04:09:51.010Z,20.74
2017-04-18T04:11:00.937Z,20.76
2017-04-18T04:12:11.184Z,20.77
2017-04-18T04:13:21.108Z,20.76
2017-04-18T04:14:30.727Z,20.74
2017-04-18T04:15:40.696Z,20.73
2017-04-18T04:16:50.937Z,20.74
2017-04-18T04:18:00.862Z,20.77
2017-04-18T04:19:10.814Z,20.72
2017-04-18T04:20:20.774Z,20.74
2017-04-18T04:21:31.015Z,20.73
2017-04-18T04:22:41.263Z,20.64
2017-04-18T04:23:51.506Z,20.76
2017-04-18T04:25:01.753Z,20.79
2017-04-18T04:26:11.373Z,20.76
2017-04-18T04:27:21.302Z,20.77
2017-04-18T04:28:30.912Z,20.76
2017-04-18T04:29:40.531Z,20.76
2017-04-18T04:30:50.456Z,20.74
2017-04-18T04:32:00.386Z,20.79
2017-04-18T04:33:10.318Z,20.7
2017-04-18T04:34:20.565Z,20.73
2017-04-18T04:35:30.809Z,20.74
2017-04-18T04:36:41.059Z,20.74
2017-04-18T04:37:51.297Z,20.73
2017-04-18T04:39:01.535Z,20.72
2017-04-18T04:40:11.457Z,20.7
2017-04-18T04:41:21.697Z,20.76
2017-04-18T04:42:31.627Z,20.76
2017-04-18T04:43:41.867Z,20.72
2017-04-18T04:44:52.112Z,20.72
2017-04-18T04:46:02.038Z,20.72
2017-04-18T04:47:12.274Z,20.72
2017-04-18T04:48:22.511Z,20.76
2017-04-18T04:49:32.127Z,20.76
2017-04-18T04:50:42.056Z,20.72
2017-04-18T04:51:51.984Z,20.76
2017-04-18T04:53:02.234Z,20.72
2017-04-18T04:54:12.165Z,20.74
2017-04-18T04:55:22.095Z,20.72
2017-04-18T04:56:32.334Z,20.61
2017-04-18T04:57:42.263Z,20.72
2017-04-18T04:58:52.190Z,20.73
2017-04-18T05:00:02.151Z,20.74
2017-04-18T05:01:12.083Z,20.7
2017-04-18T05:02:22.333Z,20.67
2017-04-18T05:03:31.941Z,20.58
2017-04-18T05:04:42.183Z,20.62
2017-04-18T05:05:51.629Z,20.58
2017-04-18T05:07:01.868Z,20.54
2017-04-18T05:08:12.122Z,20.66
2017-04-18T05:09:22.362Z,20.59
2017-04-18T05:10:32.607Z,20.59
2017-04-18T05:11:42.550Z,20.59
2017-04-18T05:12:52.799Z,20.62
2017-04-18T05:14:03.150Z,20.61
2017-04-18T05:15:13.073Z,20.62
2017-04-18T05:16:23.318Z,20.64
2017-04-18T05:17:33.555Z,20.55
2017-04-18T05:18:43.823Z,20.59
2017-04-18T05:19:54.065Z,20.59
2017-04-18T05:21:04.306Z,20.58
2017-04-18T05:22:14.543Z,20.62
2017-04-18T05:23:23.848Z,20.62
2017-04-18T05:24:33.773Z,20.61
2017-04-18T05:25:43.702Z,20.59
2017-04-18T05:26:53.953Z,20.59
2017-04-18T05:28:04.199Z,20.59
2017-04-18T05:29:14.132Z,20.59
2017-04-18T05:30:24.378Z,20.59
2017-04-18T05:31:34.333Z,20.59
2017-04-18T05:32:44.255Z,20.62
2017-04-18T05:33:54.499Z,20.66
2017-04-18T05:35:04.763Z,20.59
2017-04-18T05:36:15.003Z,20.61
2017-04-18T05:37:25.245Z,20.61
2017-04-18T05:38:35.171Z,20.66
2017-04-18T05:39:45.109Z,20.64
2017-04-18T05:40:55.349Z,20.61
2017-04-18T05:42:05.588Z,20.58
2017-04-18T05:43:15.834Z,20.62
2017-04-18T05:44:26.078Z,20.64
2017-04-18T05:45:36.321Z,20.62
2017-04-18T05:46:46.567Z,20.72
2017-04-18T05:47:56.804Z,20.7
2017-04-18T05:49:07.045Z,20.8
2017-04-18T05:50:16.976Z,20.76
2017-04-18T05:51:26.591Z,20.77
2017-04-18T05:52:36.205Z,20.74
2017-04-18T05:53:46.445Z,20.57
2017-04-18T05:54:56.685Z,20.59
2017-04-18T05:56:06.926Z,20.62
2017-04-18T05:57:17.172Z,20.62
2017-04-18T05:58:26.474Z,20.69
2017-04-18T05:59:36.711Z,20.59
2017-04-18T06:00:46.948Z,20.61
2017-04-18T06:01:56.569Z,20.58
2017-04-18T06:03:06.491Z,20.59
2017-04-18T06:04:16.735Z,20.62
2017-04-18T06:05:26.973Z,20.62
2017-04-18T06:06:36.905Z,20.66
2017-04-18T06:07:46.827Z,20.62
2017-04-18T06:08:57.080Z,20.66
2017-04-18T06:10:07.323Z,20.57
2017-04-18T06:11:17.791Z,20.62
2017-04-18T06:12:27.401Z,20.62
2017-04-18T06:13:37.646Z,20.62
2017-04-18T06:14:47.634Z,20.58
2017-04-18T06:15:57.639Z,20.55
2017-04-18T06:17:07.587Z,20.57
2017-04-18T06:18:17.203Z,20.59
2017-04-18T06:19:27.441Z,20.55
2017-04-18T06:20:37.433Z,20.55
2017-04-18T06:21:47.441Z,20.58
2017-04-18T06:22:57.688Z,20.62
2017-04-18T06:24:07.923Z,20.58
2017-04-18T06:25:18.167Z,20.59
2017-04-18T06:26:28.406Z,20.64
2017-04-18T06:27:38.341Z,20.7
2017-04-18T06:28:48.267Z,20.76
2017-04-18T06:29:58.192Z,20.79
2017-04-18T06:31:07.806Z,20.77
2017-04-18T06:32:17.732Z,20.76
2017-04-18T06:33:27.971Z,20.85
2017-04-18T06:34:38.215Z,20.89
2017-04-18T06:35:48.450Z,20.82
2017-04-18T06:36:58.372Z,20.92
2017-04-18T06:38:07.987Z,20.91
2017-04-18T06:39:17.604Z,20.95
2017-04-18T06:40:27.845Z,21.03
2017-04-18T06:41:38.079Z,20.92
2017-04-18T06:42:48.001Z,20.94
2017-04-18T06:43:57.925Z,20.92
2017-04-18T06:45:08.163Z,20.91
2017-04-18T06:46:18.404Z,20.99
2017-04-18T06:47:28.650Z,20.94
2017-04-18T06:48:38.278Z,20.97
2017-04-18T06:49:47.897Z,20.87
2017-04-18T06:50:58.139Z,20.76
2017-04-18T06:52:08.064Z,20.82
2017-04-18T06:53:17.367Z,20.97
2017-04-18T06:54:27.603Z,20.92
2017-04-18T06:55:37.529Z,20.95
2017-04-18T06:56:47.145Z,20.99
2017-04-18T06:57:57.072Z,21.07
2017-04-18T06:59:07.317Z,20.99
2017-04-18T07:00:17.254Z,20.99
2017-04-18T07:01:26.865Z,21.03
2017-04-18T07:02:35.851Z,21.1
2017-04-18T07:03:45.467Z,21.12
2017-04-18T07:04:55.713Z,21.14
2017-04-18T07:06:05.977Z,21.07
2017-04-18T07:07:15.901Z,21.14
2017-04-18T07:08:25.522Z,21.07
2017-04-18T07:09:35.893Z,21.22
2017-04-18T07:10:46.133Z,21.21
2017-04-18T07:11:55.755Z,21.21
2017-04-18T07:13:04.799Z,21.17
2017-04-18T07:14:14.805Z,21.19
2017-04-18T07:15:25.113Z,21.09
2017-04-18T07:16:34.966Z,21.17
2017-04-18T07:17:45.475Z,21.17
2017-04-18T07:18:55.406Z,21.21
2017-04-18T07:20:05.646Z,21.14
2017-04-18T07:21:15.579Z,21.16
2017-04-18T07:22:24.563Z,21.14
2017-04-18T07:23:33.554Z,21.22
2017-04-18T07:24:43.170Z,20.98
2017-04-18T07:25:52.782Z,20.89
2017-04-18T07:27:02.712Z,20.94
2017-04-18T07:28:12.957Z,20.77
2017-04-18T07:29:22.891Z,20.32
2017-04-18T07:30:33.138Z,20.48
2017-04-18T07:31:42.438Z,20.59
2017-04-18T07:32:51.426Z,20.77
2017-04-18T07:34:00.747Z,20.85
2017-04-18T07:35:09.459Z,20.87
2017-04-18T07:36:19.704Z,20.97
2017-04-18T07:37:29.643Z,21.03
2017-04-18T07:38:39.580Z,21.07
2017-04-18T07:39:49.200Z,21.06
2017-04-18T07:40:59.119Z,21.1
2017-04-18T07:42:08.111Z,21.17
2017-04-18T07:43:17.098Z,21.22
2017-04-18T07:44:25.771Z,21.13
2017-04-18T07:45:34.444Z,21.22
2017-04-18T07:46:43.751Z,21.13
2017-04-18T07:47:53.372Z,21.17
2017-04-18T07:49:03.625Z,21.24
2017-04-18T07:50:13.242Z,21.24
2017-04-18T07:51:23.484Z,21.24
2017-04-18T07:52:32.474Z,21.17
2017-04-18T07:53:41.151Z,21.21
2017-04-18T07:54:50.849Z,21.29
2017-04-18T07:55:59.833Z,21.29
2017-04-18T07:57:08.506Z,21.34
2017-04-18T07:58:18.123Z,21.25
2017-04-18T07:59:27.733Z,21.22
2017-04-18T08:00:37.665Z,21.22
2017-04-18T08:01:47.906Z,21.27
2017-04-18T08:02:57.907Z,21.38
2017-04-18T08:04:07.834Z,21.35
2017-04-18T08:05:17.763Z,21.37
2017-04-18T08:06:27.693Z,21.42
2017-04-18T08:07:37.875Z,21.35
2017-04-18T08:08:47.490Z,21.25
2017-04-18T08:09:57.429Z,21.24
2017-04-18T08:11:07.361Z,21.25
2017-04-18T08:12:17.291Z,21.24
2017-04-18T08:13:26.910Z,21.22
2017-04-18T08:14:36.854Z,21.25
2017-04-18T08:15:46.789Z,21.29
2017-04-18T08:16:56.714Z,21.27
2017-04-18T08:18:06.645Z,21.25
2017-04-18T08:19:16.261Z,21.24
2017-04-18T08:20:26.190Z,21.24
2017-04-18T08:21:36.119Z,21.29
2017-04-18T08:22:46.044Z,21.27
2017-04-18T08:23:55.661Z,21.21
2017-04-18T08:25:05.283Z,21.31
2017-04-18T08:26:15.523Z,21.27
2017-04-18T08:27:25.138Z,21.24
2017-04-18T08:28:35.377Z,21.24
2017-04-18T08:29:45.311Z,21.22
2017-04-18T08:30:54.924Z,21.24
2017-04-18T08:32:05.168Z,21.22
2017-04-18T08:33:15.099Z,21.24
2017-04-18T08:34:25.345Z,21.25
2017-04-18T08:35:35.271Z,21.28
2017-04-18T08:36:45.213Z,21.25
2017-04-18T08:37:54.255Z,21.27
2017-04-18T08:39:04.499Z,21.25
2017-04-18T08:40:14.424Z,21.27
2017-04-18T08:41:24.357Z,21.24
2017-04-18T08:42:34.317Z,21.32
2017-04-18T08:43:44.555Z,21.25
2017-04-18T08:44:54.496Z,21.28
2017-04-18T08:46:04.109Z,21.25
2017-04-18T08:47:13.724Z,21.27
2017-04-18T08:48:23.967Z,21.22
2017-04-18T08:49:33.893Z,21.24
2017-04-18T08:50:44.134Z,21.28
2017-04-18T08:51:54.374Z,21.24
2017-04-18T08:53:03.983Z,21.27
2017-04-18T08:54:13.284Z,21.27
2017-04-18T08:55:22.684Z,21.24
2017-04-18T08:56:31.684Z,21.25
2017-04-18T08:57:40.986Z,21.28
2017-04-18T08:58:50.594Z,21.27
2017-04-18T09:00:00.535Z,21.29
2017-04-18T09:01:10.771Z,21.25
2017-04-18T09:02:20.078Z,21.31
2017-04-18T09:03:29.997Z,21.25
2017-04-18T09:04:39.613Z,21.21
2017-04-18T09:05:49.850Z,21.25
2017-04-18T09:06:59.782Z,21.22
2017-04-18T09:08:10.026Z,21.27
2017-04-18T09:09:19.948Z,21.28
2017-04-18T09:10:29.566Z,21.24
2017-04-18T09:11:39.492Z,21.22
2017-04-18T09:12:49.116Z,21.25
2017-04-18T09:13:58.728Z,21.28
2017-04-18T09:15:08.734Z,21.27
2017-04-18T09:16:19.009Z,21.22
2017-04-18T09:17:28.621Z,21.28
2017-04-18T09:18:38.863Z,21.31
2017-04-18T09:19:48.793Z,21.25
2017-04-18T09:20:58.721Z,21.25
2017-04-18T09:22:08.961Z,21.25
2017-04-18T09:23:19.208Z,21.34
2017-04-18T09:24:29.135Z,21.31
2017-04-18T09:25:39.064Z,21.34
2017-04-18T09:26:48.369Z,21.29
2017-04-18T09:27:57.984Z,21.29
2017-04-18T09:29:07.632Z,21.34
2017-04-18T09:30:17.900Z,21.32
2017-04-18T09:31:27.507Z,21.29
2017-04-18T09:32:37.440Z,21.28
2017-04-18T09:33:47.687Z,21.24
2017-04-18T09:34:57.934Z,21.29
2017-04-18T09:36:07.866Z,21.32
2017-04-18T09:37:17.166Z,21.29
2017-04-18T09:38:27.095Z,21.32
2017-04-18T09:39:36.711Z,21.29
2017-04-18T09:40:46.328Z,21.29
2017-04-18T09:41:56.565Z,21.25
2017-04-18T09:43:06.803Z,21.27
2017-04-18T09:44:17.050Z,21.38
2017-04-18T09:45:26.667Z,21.38
2017-04-18T09:46:36.278Z,21.42
2017-04-18T09:47:45.892Z,21.38
2017-04-18T09:48:56.136Z,21.42
2017-04-18T09:50:06.388Z,21.32
2017-04-18T09:51:15.683Z,21.29
2017-04-18T09:52:25.626Z,21.29
2017-04-18T09:53:35.565Z,21.44
2017-04-18T09:54:45.184Z,21.34
2017-04-18T09:55:55.107Z,21.4
2017-04-18T09:57:05.034Z,21.4
2017-04-18T09:58:14.970Z,21.35
2017-04-18T09:59:25.216Z,21.27
2017-04-18T10:00:35.451Z,21.38
2017-04-18T10:01:45.376Z,21.28
2017-04-18T10:02:55.617Z,21.44
2017-04-18T10:04:05.542Z,21.4
2017-04-18T10:05:15.786Z,21.42
2017-04-18T10:06:25.716Z,21.32
2017-04-18T10:07:35.021Z,21.31
2017-04-18T10:08:45.265Z,21.4
2017-04-18T10:09:55.190Z,21.28
2017-04-18T10:11:05.449Z,21.38
2017-04-18T10:12:15.686Z,21.35
2017-04-18T10:13:25.607Z,21.4
2017-04-18T10:14:35.231Z,21.35
2017-04-18T10:15:44.845Z,21.31
2017-04-18T10:16:55.110Z,21.43
2017-04-18T10:18:04.724Z,21.28
2017-04-18T10:19:15.008Z,21.38
2017-04-18T10:20:25.063Z,21.44
2017-04-18T10:21:34.864Z,21.32
2017-04-18T10:22:44.476Z,21.38
2017-04-18T10:23:54.401Z,21.37
2017-04-18T10:25:04.332Z,21.34
2017-04-18T10:26:14.260Z,21.29
2017-04-18T10:27:23.892Z,21.38
2017-04-18T10:28:34.157Z,21.34
2017-04-18T10:29:44.403Z,21.28
2017-04-18T10:30:54.326Z,21.34
2017-04-18T10:32:04.254Z,21.32
2017-04-18T10:33:14.498Z,21.38
2017-04-18T10:34:24.740Z,21.38
2017-04-18T10:35:34.355Z,21.27
2017-04-18T10:36:44.285Z,21.29
2017-04-18T10:37:54.209Z,21.37
2017-04-18T10:39:04.143Z,21.34
2017-04-18T10:40:13.752Z,21.27
2017-04-18T10:41:23.686Z,21.38
2017-04-18T10:42:33.930Z,21.38
2017-04-18T10:43:44.169Z,21.31
2017-04-18T10:44:53.785Z,21.29
2017-04-18T10:46:03.724Z,21.29
2017-04-18T10:47:13.645Z,21.37
2017-04-18T10:48:22.638Z,21.37
2017-04-18T10:49:32.891Z,21.29
2017-04-18T10:50:42.821Z,21.42
2017-04-18T10:51:52.436Z,21.43
2017-04-18T10:53:02.670Z,21.35
2017-04-18T10:54:12.608Z,21.4
2017-04-18T10:55:22.850Z,21.38
2017-04-18T10:56:32.777Z,21.43
2017-04-18T10:57:42.774Z,21.32
2017-04-18T10:58:52.371Z,21.32
2017-04-18T11:00:02.565Z,21.38
2017-04-18T11:01:12.503Z,21.35
2017-04-18T11:02:22.116Z,21.44
2017-04-18T11:03:31.731Z,21.35
2017-04-18T11:04:41.974Z,21.35
2017-04-18T11:05:51.907Z,21.35
2017-04-18T11:07:02.152Z,21.37
2017-04-18T11:08:12.424Z,21.35
2017-04-18T11:09:21.725Z,21.34
2017-04-18T11:10:31.025Z,21.38
2017-04-18T11:11:40.949Z,21.43
2017-04-18T11:12:49.941Z,21.35
2017-04-18T11:14:00.192Z,21.4
2017-04-18T11:15:09.496Z,21.34
2017-04-18T11:16:19.420Z,21.35
2017-04-18T11:17:29.662Z,21.38
2017-04-18T11:18:39.591Z,21.43
2017-04-18T11:19:49.515Z,21.37
2017-04-18T11:20:59.136Z,21.49
2017-04-18T11:22:09.072Z,21.35
2017-04-18T11:23:18.995Z,21.47
2017-04-18T11:24:29.235Z,21.35
2017-04-18T11:25:39.475Z,21.38
2017-04-18T11:26:49.718Z,21.34
2017-04-18T11:27:59.331Z,21.32
2017-04-18T11:29:08.634Z,21.43
2017-04-18T11:30:18.254Z,21.38
2017-04-18T11:31:27.878Z,21.35
2017-04-18T11:32:38.122Z,21.35
2017-04-18T11:33:48.054Z,21.4
2017-04-18T11:34:57.986Z,21.34
2017-04-18T11:36:07.594Z,21.38
2017-04-18T11:37:17.242Z,21.37
2017-04-18T11:38:26.983Z,21.34
2017-04-18T11:39:37.226Z,21.38
2017-04-18T11:40:46.871Z,21.38
2017-04-18T11:41:56.493Z,21.37
2017-04-18T11:43:06.426Z,21.42
2017-04-18T11:44:16.665Z,21.42
2017-04-18T11:45:26.287Z,21.43
2017-04-18T11:46:36.532Z,21.42
2017-04-18T11:47:46.774Z,21.4
2017-04-18T11:48:56.400Z,21.46
2017-04-18T11:50:06.646Z,21.38
2017-04-18T11:51:16.580Z,21.4
2017-04-18T11:52:26.506Z,21.4
2017-04-18T11:53:36.438Z,21.4
2017-04-18T11:54:46.091Z,21.43
2017-04-18T11:55:56.015Z,21.38
2017-04-18T11:57:06.255Z,21.4
2017-04-18T11:58:15.874Z,21.4
2017-04-18T11:59:25.493Z,21.29
2017-04-18T12:00:35.420Z,21.42
2017-04-18T12:01:45.354Z,21.32
2017-04-18T12:02:55.598Z,21.38
2017-04-18T12:04:05.228Z,21.43
2017-04-18T12:05:15.163Z,21.44
2017-04-18T12:06:24.777Z,21.4
2017-04-18T12:07:35.016Z,21.43
2017-04-18T12:08:44.313Z,21.44
2017-04-18T12:09:54.241Z,21.38
2017-04-18T12:11:04.173Z,21.37
2017-04-18T12:12:13.790Z,21.31
2017-04-18T12:13:23.220Z,21.32
2017-04-18T12:14:33.589Z,21.35
2017-04-18T12:15:43.205Z,21.37
2017-04-18T12:16:53.615Z,21.56
2017-04-18T12:18:03.283Z,21.53
2017-04-18T12:19:12.996Z,21.56
2017-04-18T12:20:22.926Z,21.5
2017-04-18T12:21:32.852Z,21.56
2017-04-18T12:22:42.779Z,21.52
2017-04-18T12:23:53.018Z,21.42
2017-04-18T12:25:03.250Z,21.59
2017-04-18T12:26:12.859Z,21.56
2017-04-18T12:27:22.793Z,21.53
2017-04-18T12:28:32.717Z,21.56
2017-04-18T12:29:42.024Z,21.56
2017-04-18T12:30:52.260Z,21.49
2017-04-18T12:32:02.186Z,21.59
2017-04-18T12:33:11.800Z,21.61
2017-04-18T12:34:21.414Z,21.54
2017-04-18T12:35:31.668Z,21.52
2017-04-18T12:36:41.909Z,21.53
2017-04-18T12:37:51.843Z,21.5
2017-04-18T12:39:01.769Z,21.5
2017-04-18T12:40:11.677Z,21.54
2017-04-18T12:41:21.920Z,21.54
2017-04-18T12:42:31.544Z,21.52
2017-04-18T12:43:41.782Z,21.61
2017-04-18T12:44:51.707Z,21.59
2017-04-18T12:46:01.318Z,21.47
2017-04-18T12:47:11.247Z,21.53
2017-04-18T12:48:20.548Z,21.49
2017-04-18T12:49:29.867Z,21.52
2017-04-18T12:50:39.558Z,21.5
2017-04-18T12:51:49.798Z,21.52
2017-04-18T12:52:59.416Z,21.53
2017-04-18T12:54:09.347Z,21.56
2017-04-18T12:55:19.269Z,21.54
2017-04-18T12:56:29.231Z,21.52
2017-04-18T12:57:38.532Z,21.52
2017-04-18T12:58:48.458Z,21.5
2017-04-18T12:59:57.441Z,21.46
2017-04-18T13:01:07.057Z,21.54
2017-04-18T13:02:16.668Z,21.54
2017-04-18T13:03:26.280Z,21.44
2017-04-18T13:04:36.225Z,21.54
2017-04-18T13:05:46.165Z,21.58
2017-04-18T13:06:55.778Z,21.42
2017-04-18T13:08:05.706Z,21.49
2017-04-18T13:09:15.631Z,21.52
2017-04-18T13:10:24.927Z,21.47
2017-04-18T13:11:34.225Z,21.5
2017-04-18T13:12:44.162Z,21.58
2017-04-18T13:13:53.486Z,21.56
2017-04-18T13:15:03.414Z,21.49
2017-04-18T13:16:13.648Z,21.53
2017-04-18T13:17:22.948Z,21.43
2017-04-18T13:18:33.191Z,21.58
2017-04-18T13:19:42.500Z,21.52
2017-04-18T13:20:52.581Z,21.52
2017-04-18T13:22:02.244Z,21.5
2017-04-18T13:23:11.964Z,21.54
2017-04-18T13:24:21.263Z,21.5
2017-04-18T13:25:31.494Z,21.49
2017-04-18T13:26:41.420Z,21.47
2017-04-18T13:27:51.351Z,21.52
2017-04-18T13:29:01.278Z,21.43
2017-04-18T13:30:11.206Z,21.46
2017-04-18T13:31:20.817Z,21.43
2017-04-18T13:32:30.430Z,21.46
2017-04-18T13:33:39.426Z,21.47
2017-04-18T13:34:49.042Z,21.46
2017-04-18T13:35:58.655Z,21.46
2017-04-18T13:37:08.269Z,21.47
2017-04-18T13:38:18.507Z,21.47
2017-04-18T13:39:28.126Z,21.49
2017-04-18T13:40:38.367Z,21.54
2017-04-18T13:41:48.610Z,21.46
2017-04-18T13:42:58.221Z,21.52
2017-04-18T13:44:07.527Z,21.46
2017-04-18T13:45:16.534Z,21.46
2017-04-18T13:46:25.542Z,21.44
2017-04-18T13:47:35.470Z,21.47
2017-04-18T13:48:44.770Z,21.46
2017-04-18T13:49:54.695Z,21.43
2017-04-18T13:51:04.621Z,21.42
2017-04-18T13:52:14.237Z,21.47
2017-04-18T13:53:23.539Z,21.47
2017-04-18T13:54:32.220Z,21.46
2017-04-18T13:55:41.534Z,21.49
2017-04-18T13:56:50.621Z,21.44
2017-04-18T13:57:59.920Z,21.43
2017-04-18T13:59:09.845Z,21.42
2017-04-18T14:00:20.088Z,21.46
2017-04-18T14:01:30.349Z,21.42
2017-04-18T14:02:40.274Z,21.47
2017-04-18T14:03:49.256Z,21.43
2017-04-18T14:04:58.562Z,21.49
2017-04-18T14:06:08.501Z,21.56
2017-04-18T14:07:17.811Z,21.47
2017-04-18T14:08:27.143Z,21.5
2017-04-18T14:09:36.450Z,21.49
2017-04-18T14:10:46.377Z,21.52
2017-04-18T14:11:56.611Z,21.46
2017-04-18T14:13:06.738Z,21.52
2017-04-18T14:14:16.975Z,21.53
2017-04-18T14:15:26.926Z,21.61
2017-04-18T14:16:37.166Z,21.53
2017-04-18T14:17:47.101Z,21.54
2017-04-18T14:18:57.343Z,21.58
2017-04-18T14:20:07.580Z,21.58
2017-04-18T14:21:17.840Z,21.58
2017-04-18T14:22:28.080Z,21.59
2017-04-18T14:23:38.007Z,21.53
2017-04-18T14:24:48.243Z,21.54
2017-04-18T14:25:58.219Z,21.46
2017-04-18T14:27:08.506Z,21.58
2017-04-18T14:28:18.431Z,21.61
2017-04-18T14:29:28.384Z,21.56
2017-04-18T14:30:38.313Z,21.53
2017-04-18T14:31:48.555Z,21.56
2017-04-18T14:32:58.165Z,21.49
2017-04-18T14:34:07.781Z,21.46
2017-04-18T14:35:18.025Z,21.47
2017-04-18T14:36:27.951Z,21.56
2017-04-18T14:37:38.186Z,21.59
2017-04-18T14:38:48.422Z,21.58
2017-04-18T14:39:58.658Z,21.61
2017-04-18T14:41:08.595Z,21.56
2017-04-18T14:42:18.520Z,21.59
2017-04-18T14:43:28.757Z,21.43
2017-04-18T14:44:38.370Z,21.47
2017-04-18T14:45:48.302Z,21.46
2017-04-18T14:46:58.231Z,21.5
2017-04-18T14:48:08.168Z,21.5
2017-04-18T14:49:18.108Z,21.43
2017-04-18T14:50:28.352Z,21.42
2017-04-18T14:51:38.592Z,21.34
2017-04-18T14:52:48.543Z,21.46
2017-04-18T14:53:58.488Z,21.37
2017-04-18T14:55:08.105Z,21.09
2017-04-18T14:56:18.346Z,20.73
2017-04-18T14:57:28.586Z,20.24
2017-04-18T14:58:38.890Z,20.38
2017-04-18T14:59:49.135Z,20.58
2017-04-18T15:00:58.429Z,20.79
2017-04-18T15:02:08.376Z,20.73
2017-04-18T15:03:18.624Z,20.74